createdAt,value
2023-05-10T00:00:30.201Z,0.00
2023-05-10T00:01:30.289Z,0.00
2023-05-10T00:02:30.316Z,0.00
2023-05-10T00:03:30.180Z,0.00
2023-05-10T00:04:30.176Z,0.00
2023-05-10T00:05:30.181Z,0.00
2023-05-10T00:06:30.146Z,0.00
2023-05-10T00:07:30.177Z,0.00
2023-05-10T00:08:30.125Z,0.00
2023-05-10T00:09:30.144Z,0.00
2023-05-10T00:10:30.144Z,0.00
2023-05-10T00:11:30.130Z,0.00
2023-05-10T00:12:30.113Z,0.00
2023-05-10T00:13:30.222Z,0.00
2023-05-10T00:14:30.059Z,0.00
2023-05-10T00:15:30.044Z,0.00
2023-05-10T00:16:30.086Z,0.00
2023-05-10T00:17:30.498Z,0.00
2023-05-10T00:18:30.064Z,0.00
2023-05-10T00:19:30.062Z,0.00
2023-05-10T00:20:30.157Z,0.00
2023-05-10T00:21:29.978Z,0.00
2023-05-10T00:22:30.025Z,0.00
2023-05-10T00:23:29.960Z,0.00
2023-05-10T00:24:29.952Z,0.00
2023-05-10T00:25:29.943Z,0.00
2023-05-10T00:26:29.936Z,0.00
2023-05-10T00:27:29.963Z,0.00
2023-05-10T00:28:29.929Z,0.00
2023-05-10T00:29:29.905Z,0.00
2023-05-10T00:30:29.914Z,0.00
2023-05-10T00:31:29.915Z,0.00
2023-05-10T00:32:29.875Z,0.00
2023-05-10T00:33:29.883Z,0.00
2023-05-10T00:34:29.876Z,0.00
2023-05-10T00:35:29.838Z,0.00
2023-05-10T00:36:29.822Z,0.00
2023-05-10T00:37:29.824Z,0.00
2023-05-10T00:38:29.799Z,0.00
2023-05-10T00:39:29.791Z,0.00
2023-05-10T00:40:29.846Z,0.00
2023-05-10T00:41:29.782Z,0.00
2023-05-10T00:42:29.828Z,0.00
2023-05-10T00:43:29.767Z,0.00
2023-05-10T00:44:29.732Z,0.00
2023-05-10T00:45:29.708Z,0.00
2023-05-10T00:46:29.823Z,0.00
2023-05-10T00:47:29.773Z,0.00
2023-05-10T00:48:29.791Z,0.00
2023-05-10T00:49:29.699Z,0.00
2023-05-10T00:50:29.787Z,0.00
2023-05-10T00:51:29.631Z,0.00
2023-05-10T00:52:29.625Z,0.00
2023-05-10T00:53:29.733Z,0.00
2023-05-10T00:54:29.641Z,0.00
2023-05-10T00:55:29.718Z,0.00
2023-05-10T00:56:29.676Z,0.00
2023-05-10T00:57:29.637Z,0.00
2023-05-10T00:58:29.648Z,0.00
2023-05-10T00:59:29.703Z,0.00
2023-05-10T01:00:29.639Z,0.00
2023-05-10T01:01:29.684Z,0.00
2023-05-10T01:02:29.685Z,0.00
2023-05-10T01:03:29.566Z,0.00
2023-05-10T01:04:29.583Z,0.00
2023-05-10T01:05:30.338Z,0.00
2023-05-10T01:06:29.515Z,0.00
2023-05-10T01:07:29.483Z,0.00
2023-05-10T01:08:29.493Z,0.00
2023-05-10T01:09:29.470Z,0.00
2023-05-10T01:10:29.472Z,0.00
2023-05-10T01:11:29.536Z,0.00
2023-05-10T01:12:29.562Z,0.00
2023-05-10T01:13:29.604Z,0.00
2023-05-10T01:14:29.439Z,0.00
2023-05-10T01:15:29.407Z,0.00
2023-05-10T01:16:29.556Z,0.00
2023-05-10T01:17:29.423Z,0.00
2023-05-10T01:18:29.403Z,0.00
2023-05-10T01:19:29.383Z,0.00
2023-05-10T01:20:29.380Z,0.00
2023-05-10T01:21:29.367Z,0.00
2023-05-10T01:22:29.332Z,0.00
2023-05-10T01:23:29.361Z,0.00
2023-05-10T01:24:29.304Z,0.00
2023-05-10T01:25:29.316Z,0.00
2023-05-10T01:26:29.302Z,0.00
2023-05-10T01:27:29.273Z,0.00
2023-05-10T01:28:29.327Z,0.00
2023-05-10T01:29:29.264Z,0.00
2023-05-10T01:30:29.249Z,0.00
2023-05-10T01:31:29.387Z,0.00
2023-05-10T01:32:29.296Z,0.00
2023-05-10T01:33:29.250Z,0.00
2023-05-10T01:34:29.232Z,0.00
2023-05-10T01:35:29.203Z,0.00
2023-05-10T01:36:29.256Z,0.00
2023-05-10T01:37:29.169Z,0.00
2023-05-10T01:38:29.159Z,0.00
2023-05-10T01:39:29.180Z,0.00
2023-05-10T01:40:29.153Z,0.00
2023-05-10T01:41:29.178Z,0.00
2023-05-10T01:42:29.126Z,0.00
2023-05-10T01:43:29.150Z,0.00
2023-05-10T01:44:29.105Z,0.00
2023-05-10T01:45:29.089Z,0.00
2023-05-10T01:46:29.105Z,0.00
2023-05-10T01:47:29.090Z,0.00
2023-05-10T01:48:29.043Z,0.00
2023-05-10T01:49:29.082Z,0.00
2023-05-10T01:50:29.050Z,0.00
2023-05-10T01:51:29.022Z,0.00
2023-05-10T01:52:29.025Z,0.00
2023-05-10T01:53:29.016Z,0.00
2023-05-10T01:54:29.012Z,0.00
2023-05-10T01:55:29.016Z,0.00
2023-05-10T01:56:28.994Z,0.00
2023-05-10T01:57:29.004Z,0.00
2023-05-10T01:58:28.918Z,0.00
2023-05-10T01:59:29.013Z,0.00
2023-05-10T02:00:28.935Z,0.00
2023-05-10T02:01:28.947Z,0.00
2023-05-10T02:02:28.969Z,0.00
2023-05-10T02:03:29.002Z,0.00
2023-05-10T02:04:28.870Z,0.00
2023-05-10T02:05:28.871Z,0.00
2023-05-10T02:06:28.879Z,0.00
2023-05-10T02:07:28.877Z,0.00
2023-05-10T02:08:28.855Z,0.00
2023-05-10T02:09:28.857Z,0.00
2023-05-10T02:10:28.846Z,0.00
2023-05-10T02:11:28.786Z,0.00
2023-05-10T02:12:28.895Z,0.00
2023-05-10T02:13:28.860Z,0.00
2023-05-10T02:14:28.779Z,0.00
2023-05-10T02:15:28.819Z,0.00
2023-05-10T02:16:28.838Z,0.00
2023-05-10T02:17:28.819Z,0.00
2023-05-10T02:18:28.765Z,0.00
2023-05-10T02:19:28.769Z,0.00
2023-05-10T02:20:28.739Z,0.00
2023-05-10T02:21:28.706Z,0.00
2023-05-10T02:22:28.712Z,0.00
2023-05-10T02:23:28.683Z,0.00
2023-05-10T02:24:28.684Z,0.00
2023-05-10T02:25:28.691Z,0.00
2023-05-10T02:26:28.684Z,0.00
2023-05-10T02:27:28.654Z,0.00
2023-05-10T02:28:28.654Z,0.00
2023-05-10T02:29:28.628Z,0.00
2023-05-10T02:30:28.663Z,0.00
2023-05-10T02:31:28.629Z,0.00
2023-05-10T02:32:28.660Z,0.00
2023-05-10T02:33:28.608Z,0.00
2023-05-10T02:34:28.552Z,0.00
2023-05-10T02:35:28.633Z,0.00
2023-05-10T02:36:28.544Z,0.00
2023-05-10T02:37:28.556Z,0.00
2023-05-10T02:38:28.574Z,0.00
2023-05-10T02:39:28.569Z,0.00
2023-05-10T02:40:28.926Z,0.00
2023-05-10T02:41:28.492Z,0.00
2023-05-10T02:42:28.477Z,0.00
2023-05-10T02:43:28.539Z,0.00
2023-05-10T02:44:28.489Z,0.00
2023-05-10T02:45:28.554Z,0.00
2023-05-10T02:46:28.506Z,0.00
2023-05-10T02:47:28.442Z,0.00
2023-05-10T02:48:28.439Z,0.00
2023-05-10T02:49:28.424Z,0.00
2023-05-10T02:50:28.454Z,0.00
2023-05-10T02:51:28.394Z,0.00
2023-05-10T02:52:28.362Z,0.00
2023-05-10T02:53:28.430Z,0.00
2023-05-10T02:54:28.394Z,0.00
2023-05-10T02:55:28.387Z,0.00
2023-05-10T02:56:28.385Z,0.00
2023-05-10T02:57:28.331Z,0.00
2023-05-10T02:58:28.305Z,0.00
2023-05-10T02:59:28.306Z,0.00
2023-05-10T03:00:28.306Z,0.00
2023-05-10T03:01:28.336Z,0.00
2023-05-10T03:02:28.320Z,0.00
2023-05-10T03:03:28.277Z,0.00
2023-05-10T03:04:28.298Z,0.00
2023-05-10T03:05:28.241Z,0.00
2023-05-10T03:06:28.252Z,0.00
2023-05-10T03:07:28.225Z,0.00
2023-05-10T03:08:28.230Z,0.00
2023-05-10T03:09:28.208Z,0.00
2023-05-10T03:10:28.171Z,0.00
2023-05-10T03:11:28.238Z,0.00
2023-05-10T03:12:28.167Z,0.00
2023-05-10T03:13:28.249Z,0.00
2023-05-10T03:14:28.131Z,0.00
2023-05-10T03:15:28.158Z,0.00
2023-05-10T03:16:28.312Z,0.00
2023-05-10T03:17:28.140Z,0.00
2023-05-10T03:18:28.066Z,0.00
2023-05-10T03:19:28.031Z,0.00
2023-05-10T03:20:28.023Z,0.00
2023-05-10T03:21:28.051Z,0.00
2023-05-10T03:22:28.043Z,0.00
2023-05-10T03:23:28.006Z,0.00
2023-05-10T03:24:28.126Z,0.00
2023-05-10T03:25:27.967Z,0.00
2023-05-10T03:26:27.983Z,0.00
2023-05-10T03:27:28.023Z,0.00
2023-05-10T03:28:27.974Z,0.00
2023-05-10T03:29:27.934Z,0.00
2023-05-10T03:30:27.916Z,0.00
2023-05-10T03:31:28.071Z,0.00
2023-05-10T03:32:27.969Z,0.00
2023-05-10T03:33:27.990Z,0.00
2023-05-10T03:34:27.907Z,0.00
2023-05-10T03:35:27.922Z,0.00
2023-05-10T03:36:27.857Z,0.00
2023-05-10T03:37:27.880Z,0.00
2023-05-10T03:38:30.258Z,0.00
2023-05-10T03:39:27.816Z,0.00
2023-05-10T03:40:27.877Z,0.00
2023-05-10T03:41:27.829Z,0.00
2023-05-10T03:42:27.876Z,0.00
2023-05-10T03:43:27.793Z,0.00
2023-05-10T03:44:27.830Z,0.00
2023-05-10T03:45:27.758Z,0.00
2023-05-10T03:46:27.820Z,0.00
2023-05-10T03:47:27.824Z,0.00
2023-05-10T03:48:27.732Z,0.00
2023-05-10T03:49:27.719Z,0.00
2023-05-10T03:50:27.764Z,0.00
2023-05-10T03:51:27.709Z,0.00
2023-05-10T03:52:27.811Z,0.00
2023-05-10T03:53:27.703Z,0.00
2023-05-10T03:54:27.689Z,0.00
2023-05-10T03:55:27.675Z,0.00
2023-05-10T03:56:27.635Z,0.00
2023-05-10T03:57:27.636Z,0.00
2023-05-10T03:58:27.657Z,0.00
2023-05-10T03:59:27.642Z,0.00
2023-05-10T04:00:27.596Z,0.00
2023-05-10T04:01:27.606Z,5.62
2023-05-10T04:02:27.734Z,5.62
2023-05-10T04:03:27.668Z,5.62
2023-05-10T04:04:27.567Z,5.62
2023-05-10T04:05:27.601Z,5.62
2023-05-10T04:06:27.574Z,5.62
2023-05-10T04:07:27.521Z,5.62
2023-05-10T04:08:27.536Z,5.62
2023-05-10T04:09:27.511Z,5.62
2023-05-10T04:10:27.522Z,5.62
2023-05-10T04:11:27.534Z,11.25
2023-05-10T04:12:27.470Z,11.25
2023-05-10T04:13:27.551Z,11.25
2023-05-10T04:14:27.440Z,11.25
2023-05-10T04:15:27.438Z,11.25
2023-05-10T04:16:27.497Z,11.25
2023-05-10T04:17:27.475Z,11.25
2023-05-10T04:18:27.448Z,11.25
2023-05-10T04:19:27.387Z,11.25
2023-05-10T04:20:27.383Z,11.25
2023-05-10T04:21:27.383Z,11.25
2023-05-10T04:22:27.377Z,11.25
2023-05-10T04:23:27.394Z,11.25
2023-05-10T04:24:27.343Z,16.88
2023-05-10T04:25:27.352Z,16.88
2023-05-10T04:26:27.328Z,16.88
2023-05-10T04:27:27.327Z,16.88
2023-05-10T04:28:27.323Z,16.88
2023-05-10T04:29:27.320Z,16.88
2023-05-10T04:30:27.313Z,22.50
2023-05-10T04:31:27.324Z,22.50
2023-05-10T04:32:27.334Z,22.50
2023-05-10T04:33:27.247Z,22.50
2023-05-10T04:34:27.257Z,28.12
2023-05-10T04:35:27.269Z,28.12
2023-05-10T04:36:27.228Z,28.12
2023-05-10T04:37:27.236Z,28.12
2023-05-10T04:38:27.261Z,22.50
2023-05-10T04:39:27.185Z,22.50
2023-05-10T04:40:27.193Z,22.50
2023-05-10T04:41:27.177Z,22.50
2023-05-10T04:42:27.150Z,22.50
2023-05-10T04:43:27.133Z,28.12
2023-05-10T04:44:27.158Z,28.12
2023-05-10T04:45:27.126Z,28.12
2023-05-10T04:46:27.154Z,28.12
2023-05-10T04:47:27.141Z,28.12
2023-05-10T04:48:27.174Z,28.12
2023-05-10T04:49:27.108Z,33.75
2023-05-10T04:50:27.065Z,33.75
2023-05-10T04:51:27.102Z,33.75
2023-05-10T04:52:27.071Z,33.75
2023-05-10T04:53:27.071Z,39.38
2023-05-10T04:54:27.055Z,45.00
2023-05-10T04:55:27.044Z,45.00
2023-05-10T04:56:27.078Z,50.62
2023-05-10T04:57:26.998Z,50.62
2023-05-10T04:58:27.122Z,56.25
2023-05-10T04:59:26.974Z,56.25
2023-05-10T05:00:26.983Z,56.25
2023-05-10T05:01:27.091Z,56.25
2023-05-10T05:02:27.006Z,56.25
2023-05-10T05:03:27.007Z,56.25
2023-05-10T05:04:26.943Z,56.25
2023-05-10T05:05:26.931Z,61.88
2023-05-10T05:06:27.013Z,61.88
2023-05-10T05:07:26.899Z,61.88
2023-05-10T05:08:27.012Z,61.88
2023-05-10T05:09:26.922Z,61.88
2023-05-10T05:10:26.885Z,61.88
2023-05-10T05:11:26.922Z,61.88
2023-05-10T05:12:26.866Z,56.25
2023-05-10T05:13:26.858Z,56.25
2023-05-10T05:14:26.862Z,56.25
2023-05-10T05:15:26.825Z,56.25
2023-05-10T05:16:26.887Z,50.62
2023-05-10T05:17:26.812Z,50.62
2023-05-10T05:18:26.813Z,45.00
2023-05-10T05:19:26.840Z,45.00
2023-05-10T05:20:26.770Z,45.00
2023-05-10T05:21:26.741Z,45.00
2023-05-10T05:22:26.767Z,45.00
2023-05-10T05:23:26.716Z,45.00
2023-05-10T05:24:26.750Z,45.00
2023-05-10T05:25:26.697Z,45.00
2023-05-10T05:26:26.682Z,45.00
2023-05-10T05:27:26.739Z,45.00
2023-05-10T05:28:26.671Z,45.00
2023-05-10T05:29:26.698Z,50.62
2023-05-10T05:30:27.632Z,50.62
2023-05-10T05:31:26.659Z,50.62
2023-05-10T05:32:26.701Z,50.62
2023-05-10T05:33:26.601Z,56.25
2023-05-10T05:34:26.679Z,56.25
2023-05-10T05:35:26.608Z,61.88
2023-05-10T05:36:26.587Z,61.88
2023-05-10T05:37:26.586Z,67.50
2023-05-10T05:38:26.583Z,67.50
2023-05-10T05:39:26.592Z,73.12
2023-05-10T05:40:26.544Z,73.12
2023-05-10T05:41:26.546Z,73.12
2023-05-10T05:42:26.582Z,78.75
2023-05-10T05:43:26.522Z,78.75
2023-05-10T05:44:26.524Z,78.75
2023-05-10T05:45:26.491Z,73.12
2023-05-10T05:46:26.562Z,73.12
2023-05-10T05:47:26.493Z,67.50
2023-05-10T05:48:26.474Z,61.88
2023-05-10T05:49:26.469Z,61.88
2023-05-10T05:50:26.453Z,56.25
2023-05-10T05:51:26.421Z,56.25
2023-05-10T05:52:26.473Z,56.25
2023-05-10T05:53:26.398Z,56.25
2023-05-10T05:54:26.396Z,50.62
2023-05-10T05:55:26.405Z,50.62
2023-05-10T05:56:26.389Z,45.00
2023-05-10T05:57:26.410Z,50.62
2023-05-10T05:58:26.355Z,50.62
2023-05-10T05:59:26.352Z,50.62
2023-05-10T06:00:26.372Z,56.25
2023-05-10T06:01:26.325Z,56.25
2023-05-10T06:02:26.411Z,67.50
2023-05-10T06:03:26.436Z,73.12
2023-05-10T06:04:26.442Z,78.75
2023-05-10T06:05:26.362Z,84.38
2023-05-10T06:06:26.292Z,84.38
2023-05-10T06:07:26.376Z,84.38
2023-05-10T06:08:26.271Z,84.38
2023-05-10T06:09:26.244Z,84.38
2023-05-10T06:10:26.271Z,84.38
2023-05-10T06:11:26.220Z,90.00
2023-05-10T06:12:26.231Z,90.00
2023-05-10T06:13:26.274Z,90.00
2023-05-10T06:14:26.213Z,84.38
2023-05-10T06:15:26.214Z,95.62
2023-05-10T06:16:26.194Z,95.62
2023-05-10T06:17:26.225Z,101.25
2023-05-10T06:18:26.202Z,112.50
2023-05-10T06:19:26.149Z,112.50
2023-05-10T06:20:26.201Z,112.50
2023-05-10T06:21:26.174Z,106.88
2023-05-10T06:22:26.213Z,112.50
2023-05-10T06:23:26.140Z,118.12
2023-05-10T06:24:26.080Z,123.75
2023-05-10T06:25:26.072Z,129.38
2023-05-10T06:26:26.085Z,129.38
2023-05-10T06:27:26.052Z,123.75
2023-05-10T06:28:26.046Z,112.50
2023-05-10T06:29:26.040Z,112.50
2023-05-10T06:30:26.062Z,112.50
2023-05-10T06:31:26.057Z,106.88
2023-05-10T06:32:26.016Z,106.88
2023-05-10T06:33:26.022Z,106.88
2023-05-10T06:34:25.980Z,106.88
2023-05-10T06:35:25.970Z,112.50
2023-05-10T06:36:25.996Z,112.50
2023-05-10T06:37:25.964Z,106.88
2023-05-10T06:38:25.958Z,95.62
2023-05-10T06:39:25.927Z,95.62
2023-05-10T06:40:25.934Z,95.62
2023-05-10T06:41:25.921Z,101.25
2023-05-10T06:42:25.888Z,106.88
2023-05-10T06:43:25.917Z,106.88
2023-05-10T06:44:25.871Z,112.50
2023-05-10T06:45:25.861Z,123.75
2023-05-10T06:46:25.917Z,129.38
2023-05-10T06:47:25.864Z,146.25
2023-05-10T06:48:25.829Z,157.50
2023-05-10T06:49:25.810Z,163.12
2023-05-10T06:50:25.907Z,174.38
2023-05-10T06:51:25.793Z,185.62
2023-05-10T06:52:25.781Z,191.25
2023-05-10T06:53:25.778Z,191.25
2023-05-10T06:54:25.779Z,191.25
2023-05-10T06:55:25.754Z,185.62
2023-05-10T06:56:25.766Z,180.00
2023-05-10T06:58:25.712Z,168.75
2023-05-10T06:59:25.778Z,168.75
2023-05-10T07:00:25.798Z,174.38
2023-05-10T07:01:25.798Z,180.00
2023-05-10T07:02:25.666Z,180.00
2023-05-10T07:03:25.663Z,180.00
2023-05-10T07:04:25.743Z,180.00
2023-05-10T07:05:25.639Z,180.00
2023-05-10T07:06:33.469Z,180.00
2023-05-10T07:07:25.634Z,185.62
2023-05-10T07:08:25.594Z,185.62
2023-05-10T07:09:25.598Z,185.62
2023-05-10T07:10:25.584Z,180.00
2023-05-10T07:11:25.591Z,168.75
2023-05-10T07:12:25.602Z,163.12
2023-05-10T07:13:25.671Z,151.88
2023-05-10T07:14:25.583Z,140.62
2023-05-10T07:15:25.525Z,135.00
2023-05-10T07:16:25.708Z,129.38
2023-05-10T07:17:25.607Z,118.12
2023-05-10T07:18:25.533Z,118.12
2023-05-10T07:19:25.514Z,112.50
2023-05-10T07:20:25.466Z,106.88
2023-05-10T07:21:25.529Z,106.88
2023-05-10T07:22:25.476Z,106.88
2023-05-10T07:23:25.446Z,106.88
2023-05-10T07:24:25.473Z,106.88
2023-05-10T07:25:25.459Z,118.12
2023-05-10T07:26:25.428Z,129.38
2023-05-10T07:27:25.440Z,146.25
2023-05-10T07:28:25.394Z,157.50
2023-05-10T07:29:25.405Z,163.12
2023-05-10T07:30:25.402Z,157.50
2023-05-10T07:31:25.381Z,157.50
2023-05-10T07:32:25.541Z,151.88
2023-05-10T07:33:25.311Z,157.50
2023-05-10T07:34:25.372Z,157.50
2023-05-10T07:35:25.340Z,157.50
2023-05-10T07:36:25.327Z,146.25
2023-05-10T07:37:25.364Z,123.75
2023-05-10T07:38:25.332Z,112.50
2023-05-10T07:39:27.777Z,106.88
2023-05-10T07:40:25.268Z,118.12
2023-05-10T07:41:25.287Z,135.00
2023-05-10T07:42:25.323Z,146.25
2023-05-10T07:43:25.251Z,135.00
2023-05-10T07:44:25.238Z,123.75
2023-05-10T07:45:25.234Z,118.12
2023-05-10T07:46:25.244Z,118.12
2023-05-10T07:47:25.233Z,123.75
2023-05-10T07:48:25.177Z,140.62
2023-05-10T07:49:25.207Z,163.12
2023-05-10T07:50:25.189Z,185.62
2023-05-10T07:51:25.125Z,208.12
2023-05-10T07:52:25.161Z,208.12
2023-05-10T07:53:25.133Z,202.50
2023-05-10T07:54:25.163Z,202.50
2023-05-10T07:55:25.132Z,202.50
2023-05-10T07:56:25.086Z,208.12
2023-05-10T07:57:25.065Z,213.75
2023-05-10T07:58:25.098Z,230.62
2023-05-10T07:59:25.052Z,241.88
2023-05-10T08:00:25.107Z,236.25
2023-05-10T08:01:25.032Z,241.88
2023-05-10T08:02:25.102Z,247.50
2023-05-10T08:03:25.078Z,264.38
2023-05-10T08:04:25.062Z,286.88
2023-05-10T08:05:25.019Z,298.12
2023-05-10T08:06:24.994Z,315.00
2023-05-10T08:07:24.969Z,320.62
2023-05-10T08:08:24.978Z,326.25
2023-05-10T08:09:25.380Z,326.25
2023-05-10T08:10:24.945Z,320.62
2023-05-10T08:11:24.973Z,320.62
2023-05-10T08:12:24.944Z,320.62
2023-05-10T08:13:24.936Z,320.62
2023-05-10T08:14:24.907Z,326.25
2023-05-10T08:15:24.882Z,331.88
2023-05-10T08:16:24.898Z,337.50
2023-05-10T08:17:24.952Z,343.12
2023-05-10T08:18:24.899Z,337.50
2023-05-10T08:19:24.853Z,331.88
2023-05-10T08:20:24.827Z,326.25
2023-05-10T08:21:24.822Z,331.88
2023-05-10T08:22:24.821Z,343.12
2023-05-10T08:23:24.869Z,360.00
2023-05-10T08:24:24.798Z,371.25
2023-05-10T08:25:24.829Z,376.88
2023-05-10T08:26:24.832Z,376.88
2023-05-10T08:27:24.753Z,376.88
2023-05-10T08:28:24.844Z,371.25
2023-05-10T08:29:26.623Z,365.62
2023-05-10T08:30:24.850Z,348.75
2023-05-10T08:31:24.786Z,331.88
2023-05-10T08:32:24.799Z,320.62
2023-05-10T08:33:25.149Z,309.38
2023-05-10T08:34:25.146Z,298.12
2023-05-10T08:35:24.695Z,275.62
2023-05-10T08:36:24.696Z,264.38
2023-05-10T08:37:24.691Z,264.38
2023-05-10T08:38:24.621Z,286.88
2023-05-10T08:39:30.331Z,292.50
2023-05-10T08:40:24.710Z,286.88
2023-05-10T08:41:24.675Z,298.12
2023-05-10T08:42:24.600Z,286.88
2023-05-10T08:43:24.602Z,275.62
2023-05-10T08:44:25.111Z,264.38
2023-05-10T08:45:24.551Z,258.75
2023-05-10T08:46:24.656Z,241.88
2023-05-10T08:47:24.584Z,241.88
2023-05-10T08:48:24.563Z,258.75
2023-05-10T08:49:24.562Z,275.62
2023-05-10T08:50:24.552Z,281.25
2023-05-10T08:51:24.599Z,292.50
2023-05-10T08:52:24.507Z,292.50
2023-05-10T08:53:24.492Z,303.75
2023-05-10T08:54:24.527Z,309.38
2023-05-10T08:55:24.473Z,315.00
2023-05-10T08:56:24.567Z,320.62
2023-05-10T08:57:24.456Z,320.62
2023-05-10T08:58:24.485Z,315.00
2023-05-10T08:59:24.503Z,309.38
2023-05-10T09:00:24.469Z,303.75
2023-05-10T09:01:24.614Z,298.12
2023-05-10T09:02:24.474Z,275.62
2023-05-10T09:03:24.442Z,258.75
2023-05-10T09:04:24.495Z,247.50
2023-05-10T09:05:24.414Z,230.62
2023-05-10T09:06:24.445Z,219.38
2023-05-10T09:07:24.358Z,219.38
2023-05-10T09:08:24.342Z,219.38
2023-05-10T09:09:24.382Z,225.00
2023-05-10T09:10:24.314Z,225.00
2023-05-10T09:11:24.300Z,213.75
2023-05-10T09:12:24.600Z,202.50
2023-05-10T09:13:24.337Z,185.62
2023-05-10T09:14:24.295Z,191.25
2023-05-10T09:15:24.241Z,191.25
2023-05-10T09:16:24.267Z,196.88
2023-05-10T09:17:24.333Z,196.88
2023-05-10T09:18:25.975Z,196.88
2023-05-10T09:19:24.264Z,196.88
2023-05-10T09:20:24.219Z,191.25
2023-05-10T09:21:24.239Z,196.88
2023-05-10T09:22:24.195Z,196.88
2023-05-10T09:23:24.192Z,213.75
2023-05-10T09:24:24.189Z,230.62
2023-05-10T09:25:24.140Z,258.75
2023-05-10T09:26:24.164Z,286.88
2023-05-10T09:27:24.168Z,303.75
2023-05-10T09:28:24.108Z,315.00
2023-05-10T09:29:24.275Z,326.25
2023-05-10T09:30:24.193Z,343.12
2023-05-10T09:31:24.187Z,489.38
2023-05-10T09:32:24.163Z,286.88
2023-05-10T09:33:24.073Z,208.12
2023-05-10T09:34:24.205Z,146.25
2023-05-10T09:36:24.125Z,112.50
2023-05-10T09:37:24.023Z,101.25
2023-05-10T09:38:23.994Z,95.62
2023-05-10T09:39:23.996Z,90.00
2023-05-10T09:40:24.010Z,101.25
2023-05-10T09:41:24.086Z,129.38
2023-05-10T09:42:23.989Z,163.12
2023-05-10T09:43:23.973Z,196.88
2023-05-10T09:44:23.979Z,225.00
2023-05-10T09:45:23.974Z,247.50
2023-05-10T09:46:24.203Z,275.62
2023-05-10T09:47:24.080Z,303.75
2023-05-10T09:48:23.947Z,326.25
2023-05-10T09:49:23.906Z,371.25
2023-05-10T09:50:23.865Z,393.75
2023-05-10T09:51:23.886Z,444.38
2023-05-10T09:52:23.848Z,444.38
2023-05-10T09:53:23.870Z,511.88
2023-05-10T09:54:23.849Z,720.00
2023-05-10T09:55:23.862Z,748.12
2023-05-10T09:56:23.799Z,759.38
2023-05-10T09:57:23.968Z,1035.00
2023-05-10T09:58:23.858Z,1046.25
2023-05-10T09:59:23.812Z,686.25
2023-05-10T10:00:23.868Z,641.25
2023-05-10T10:01:23.847Z,540.00
2023-05-10T10:02:23.811Z,438.75
2023-05-10T10:03:23.755Z,438.75
2023-05-10T10:04:23.770Z,331.88
2023-05-10T10:05:23.853Z,258.75
2023-05-10T10:06:29.878Z,225.00
2023-05-10T10:07:23.726Z,202.50
2023-05-10T10:08:23.711Z,185.62
2023-05-10T10:09:23.679Z,174.38
2023-05-10T10:10:23.680Z,163.12
2023-05-10T10:11:23.684Z,151.88
2023-05-10T10:12:23.666Z,146.25
2023-05-10T10:13:23.658Z,140.62
2023-05-10T10:14:23.694Z,146.25
2023-05-10T10:15:23.603Z,151.88
2023-05-10T10:16:23.673Z,163.12
2023-05-10T10:17:23.718Z,180.00
2023-05-10T10:18:23.668Z,191.25
2023-05-10T10:19:23.588Z,202.50
2023-05-10T10:20:23.726Z,213.75
2023-05-10T10:21:23.605Z,219.38
2023-05-10T10:22:23.615Z,230.62
2023-05-10T10:23:23.572Z,236.25
2023-05-10T10:24:23.517Z,247.50
2023-05-10T10:25:23.526Z,253.12
2023-05-10T10:26:23.527Z,264.38
2023-05-10T10:27:23.573Z,270.00
2023-05-10T10:28:24.023Z,281.25
2023-05-10T10:29:23.471Z,281.25
2023-05-10T10:30:23.508Z,281.25
2023-05-10T10:31:23.590Z,275.62
2023-05-10T10:32:23.493Z,281.25
2023-05-10T10:33:28.559Z,286.88
2023-05-10T10:34:23.425Z,286.88
2023-05-10T10:35:23.413Z,286.88
2023-05-10T10:36:23.413Z,275.62
2023-05-10T10:37:23.402Z,264.38
2023-05-10T10:38:23.372Z,275.62
2023-05-10T10:39:23.337Z,303.75
2023-05-10T10:40:23.353Z,298.12
2023-05-10T10:41:23.413Z,286.88
2023-05-10T10:42:23.324Z,286.88
2023-05-10T10:43:23.315Z,270.00
2023-05-10T10:44:23.421Z,247.50
2023-05-10T10:45:23.286Z,236.25
2023-05-10T10:46:23.337Z,225.00
2023-05-10T10:47:23.347Z,208.12
2023-05-10T10:48:23.268Z,208.12
2023-05-10T10:49:23.274Z,208.12
2023-05-10T10:50:23.213Z,208.12
2023-05-10T10:51:23.280Z,202.50
2023-05-10T10:52:23.202Z,202.50
2023-05-10T10:53:23.327Z,202.50
2023-05-10T10:54:23.303Z,202.50
2023-05-10T10:55:23.220Z,202.50
2023-05-10T10:56:23.155Z,208.12
2023-05-10T10:57:23.236Z,213.75
2023-05-10T10:58:23.147Z,225.00
2023-05-10T10:59:23.233Z,253.12
2023-05-10T11:00:23.177Z,275.62
2023-05-10T11:01:23.187Z,292.50
2023-05-10T11:02:23.235Z,303.75
2023-05-10T11:03:23.086Z,303.75
2023-05-10T11:04:23.253Z,303.75
2023-05-10T11:05:23.074Z,303.75
2023-05-10T11:06:23.061Z,320.62
2023-05-10T11:07:23.118Z,343.12
2023-05-10T11:08:23.059Z,354.38
2023-05-10T11:09:23.118Z,371.25
2023-05-10T11:10:23.024Z,382.50
2023-05-10T11:11:23.021Z,399.38
2023-05-10T11:12:23.015Z,410.62
2023-05-10T11:13:22.994Z,416.25
2023-05-10T11:14:23.044Z,410.62
2023-05-10T11:15:22.969Z,421.88
2023-05-10T11:16:22.964Z,410.62
2023-05-10T11:17:23.036Z,371.25
2023-05-10T11:18:22.991Z,365.62
2023-05-10T11:19:22.921Z,365.62
2023-05-10T11:20:22.970Z,360.00
2023-05-10T11:21:22.899Z,365.62
2023-05-10T11:22:22.916Z,365.62
2023-05-10T11:23:22.876Z,360.00
2023-05-10T11:24:22.864Z,354.38
2023-05-10T11:25:22.855Z,343.12
2023-05-10T11:26:22.922Z,337.50
2023-05-10T11:27:23.247Z,331.88
2023-05-10T11:28:22.897Z,331.88
2023-05-10T11:29:22.894Z,326.25
2023-05-10T11:30:22.797Z,309.38
2023-05-10T11:31:22.960Z,303.75
2023-05-10T11:32:22.869Z,298.12
2023-05-10T11:33:22.786Z,298.12
2023-05-10T11:34:22.755Z,298.12
2023-05-10T11:35:22.777Z,292.50
2023-05-10T11:36:22.742Z,275.62
2023-05-10T11:37:22.762Z,241.88
2023-05-10T11:38:22.778Z,230.62
2023-05-10T11:39:22.721Z,225.00
2023-05-10T11:40:22.737Z,236.25
2023-05-10T11:41:22.726Z,258.75
2023-05-10T11:42:22.732Z,286.88
2023-05-10T11:43:22.672Z,315.00
2023-05-10T11:44:22.691Z,326.25
2023-05-10T11:45:22.705Z,326.25
2023-05-10T11:46:22.664Z,320.62
2023-05-10T11:47:22.914Z,315.00
2023-05-10T11:48:22.630Z,292.50
2023-05-10T11:49:22.602Z,270.00
2023-05-10T11:50:22.647Z,241.88
2023-05-10T11:51:22.593Z,208.12
2023-05-10T11:52:22.592Z,180.00
2023-05-10T11:53:24.742Z,146.25
2023-05-10T11:54:22.578Z,123.75
2023-05-10T11:55:22.603Z,118.12
2023-05-10T11:56:22.540Z,106.88
2023-05-10T11:57:22.523Z,106.88
2023-05-10T11:58:22.529Z,106.88
2023-05-10T11:59:22.511Z,112.50
2023-05-10T12:00:22.595Z,118.12
2023-05-10T12:01:22.500Z,123.75
2023-05-10T12:02:22.557Z,135.00
2023-05-10T12:03:22.578Z,146.25
2023-05-10T12:04:22.588Z,157.50
2023-05-10T12:05:22.501Z,168.75
2023-05-10T12:06:22.463Z,180.00
2023-05-10T12:07:22.438Z,191.25
2023-05-10T12:08:22.424Z,196.88
2023-05-10T12:09:35.543Z,208.12
2023-05-10T12:10:22.366Z,219.38
2023-05-10T12:11:22.396Z,236.25
2023-05-10T12:12:22.437Z,253.12
2023-05-10T12:13:22.412Z,275.62
2023-05-10T12:14:22.328Z,292.50
2023-05-10T12:15:22.332Z,315.00
2023-05-10T12:16:22.392Z,343.12
2023-05-10T12:17:22.363Z,365.62
2023-05-10T12:18:22.417Z,393.75
2023-05-10T12:19:22.309Z,517.50
2023-05-10T12:20:22.289Z,466.88
2023-05-10T12:21:22.300Z,506.25
2023-05-10T12:22:22.266Z,579.38
2023-05-10T12:23:22.272Z,590.62
2023-05-10T12:24:22.244Z,596.25
2023-05-10T12:25:22.254Z,573.75
2023-05-10T12:26:22.256Z,641.25
2023-05-10T12:27:22.204Z,523.12
2023-05-10T12:28:22.200Z,540.00
2023-05-10T12:29:22.197Z,888.75
2023-05-10T12:30:22.165Z,956.25
2023-05-10T12:31:22.213Z,568.12
2023-05-10T12:32:22.156Z,500.62
2023-05-10T12:33:22.142Z,472.50
2023-05-10T12:34:22.142Z,500.62
2023-05-10T12:35:22.144Z,635.62
2023-05-10T12:36:22.189Z,950.62
2023-05-10T12:37:22.087Z,945.00
2023-05-10T12:38:22.115Z,978.75
2023-05-10T12:39:22.104Z,950.62
2023-05-10T12:40:22.074Z,945.00
2023-05-10T12:41:22.239Z,911.25
2023-05-10T12:42:22.064Z,916.88
2023-05-10T12:43:22.066Z,894.38
2023-05-10T12:44:22.064Z,950.62
2023-05-10T12:45:22.048Z,939.38
2023-05-10T12:46:22.180Z,742.50
2023-05-10T12:47:22.022Z,601.88
2023-05-10T12:48:22.022Z,556.88
2023-05-10T12:49:22.014Z,523.12
2023-05-10T12:50:21.943Z,489.38